Usor:Amahoney/Non stipula

E Vicipaedia
Jump to navigation Jump to search

Stellula * indicat paginam inter 1,000 vel 10,000 Paginarum. Sunt 1276 paginae quae minores sunt quam stipulae:

pagina dies mutationis magnitudo paginae magnitudo textus
Lyoko codex 2017-12-12T14:05:24Z 713 639
Comitatus Corcagiensis 2017-12-12T13:48:59Z 488 408
Gloria in excelsis 2017-12-12T11:26:29Z 1407 1277
Alchiebabat 2017-12-11T19:15:59Z 553 473
Universitas Qatarensis 2017-12-10T23:27:12Z 263 193
Fabius Fazio 2017-12-10T22:58:23Z 402 281
Key Tower 2017-12-09T17:29:12Z 466 339
Torus (mathematica) 2017-12-09T17:26:28Z 315 260
Jak Mandolino 2017-12-09T17:02:22Z 481 447
Universitas Georgiae 2017-12-09T17:01:36Z 767 701
Dacota Septentrionalis 2017-12-09T00:18:50Z 1990 1950
Indiana 2017-12-08T23:47:07Z 1933 1908
Novum Aevum * 2017-12-07T09:31:17Z 1029 999
Paragraphus 2017-12-05T21:11:22Z 1192 1140
Codex Grágás 2017-12-05T15:23:17Z 505 503
Antonius Franciscus Gori 2017-12-05T14:27:21Z 1547 1351
Franciscus Barocius 2017-12-04T14:35:17Z 939 879
Evangelista 2017-12-04T14:28:37Z 1808 1676
Ichenhausen 2017-12-03T15:23:56Z 712 710
Mos maiorum 2017-12-03T12:56:11Z 1134 1059
Particula * 2017-12-03T12:41:33Z 747 710
Periculum 2017-12-03T12:40:06Z 801 773
Xaverius Pulgar Vidal 2017-12-03T12:09:30Z 1357 1244
Universitas Alas Peruanas 2017-12-03T11:40:32Z 548 439
Progymnasmata (Rhetorica) 2017-12-02T22:10:26Z 4685 4656
Iudas Maccabeus 2017-12-02T22:10:18Z 912 467
De morbo sacro 2017-12-02T22:10:10Z 384 361
Institutum Patristicum Augustinianum 2017-12-02T21:52:42Z 882 748
Montjardin 2017-12-02T21:37:51Z 556 512
Petrus Narcissus Guérin 2017-12-02T21:30:36Z 651 481
Oasis * 2017-12-02T21:27:38Z 497 422
Asa Akira 2017-12-02T17:20:08Z 754 672
Tequixquiac 2017-12-01T07:24:09Z 1682 1655
Praesumptio innocentiae 2017-11-30T20:24:37Z 668 638
Cella (templum) 2017-11-29T18:25:21Z 675 637
Universitas Antonio Ruiz de Montoya 2017-11-29T16:12:43Z 442 404
Coniuratio Iulii Civilis (Rembrandus) 2017-11-29T12:54:03Z 877 678
Acronymum 2017-11-29T12:51:59Z 1645 1615
Death Note 2017-11-27T22:05:12Z 2225 2183
Ars Fugae 2017-11-26T22:17:44Z 283 283
Pacta sunt servanda 2017-11-26T20:40:56Z 613 525
Graviore culpa, gravior poena 2017-11-26T20:40:47Z 272 246
Ne procedat iudex ex officio 2017-11-26T20:40:43Z 250 224
Vigilantibus non dormientibus iura succurrunt 2017-11-26T20:40:29Z 264 238
Quod omnes similiter tangit, ab omnibus comprobetur 2017-11-26T20:40:26Z 363 337
Lex specialis derogat generali 2017-11-26T20:40:15Z 522 496
Lex posterior derogat priori 2017-11-26T20:40:14Z 321 295
Actore non probante reus absolvitur 2017-11-26T20:40:09Z 280 254
Nemo tenetur se detegere 2017-11-26T20:39:59Z 738 683
Ne eat iudex ultra petita partium 2017-11-26T20:39:34Z 316 290
Tres faciunt collegium 2017-11-26T20:39:32Z 284 258
Ad impossibilia nemo tenetur 2017-11-26T20:39:30Z 306 280
De minimis non curat praetor 2017-11-26T20:39:25Z 320 294
Lamia (mythologia) 2017-11-26T20:32:26Z 439 384
Heros 2017-11-26T18:12:02Z 481 415
Mulai Abd ar-Rahman 2017-11-26T16:09:39Z 630 477
Oceanides 2017-11-26T14:21:22Z 824 797
Doris (mythologia) 2017-11-26T14:18:33Z 480 455
Nympha 2017-11-26T14:15:11Z 721 696
Fabula satyrica 2017-11-26T04:37:21Z 424 383
Punctum triplex * 2017-11-25T21:56:32Z 478 434
Regiones Italiae 2017-11-24T16:53:22Z 1640 1606
Livermoria 2017-11-23T12:31:50Z 377 375
Posse comitatus 2017-11-22T14:29:17Z 265 235
Ioannes McWhorter 2017-11-20T18:07:58Z 622 500
Manfredus (rex Siciliae) 2017-11-19T15:05:04Z 776 601
Femina (sexus) * 2017-11-19T00:23:34Z 749 677
Assumptio Virginis (Carracci) 2017-11-18T20:10:58Z 845 686
Comoedia * 2017-11-18T17:49:09Z 2005 1910
Gulielmus Küchelbecker 2017-11-18T15:59:47Z 1148 929
Galea 2017-11-18T15:49:52Z 569 491
Voluntas 2017-11-18T02:24:56Z 540 423
Certamen Mundanum Pedilusorium (2018) 2017-11-17T11:15:38Z 1143 1078
Maria Sacraria 2017-11-15T21:25:19Z 574 457
Productum interius * 2017-11-14T19:48:47Z 2136 2104
MundusLatinus 2017-11-14T18:01:06Z 615 587
Aetna (mythologia) 2017-11-14T09:46:36Z 833 800
Bellum de successione Hispanica * 2017-11-13T13:17:45Z 1573 1454
Cisgener 2017-11-11T00:08:24Z 171 171
Amol 2017-11-11T00:08:21Z 296 267
Alcyone (Atlantis) 2017-11-10T23:59:44Z 684 638
Praedator * 2017-11-09T17:04:53Z 608 520
Insigne Norvegiae 2017-11-09T15:30:02Z 476 419
Universitas Novicastrensis 2017-11-08T11:22:03Z 500 426
Toponomastica 2017-11-04T21:09:11Z 361 330
Lingua publica 2017-11-02T17:20:25Z 1326 1290
Velum (navigatio) * 2017-11-01T13:50:29Z 548 446
Umbrella descensoria * 2017-11-01T13:42:30Z 863 677
Charmides 2017-10-31T21:07:55Z 1063 962
Tlapanaloya 2017-10-31T20:18:42Z 439 377
Sanctus Iacobus Tequixquiac 2017-10-31T20:18:00Z 639 577
Fortinus Hippolytus Vera 2017-10-31T20:13:10Z 560 485
Pasuca Sotoensis 2017-10-31T19:31:41Z 347 319
Mystax 2017-10-30T12:01:50Z 1002 981
Charta perforata 2017-10-29T21:23:21Z 1532 1506
Tabula mater * 2017-10-29T17:07:04Z 466 365
Lingua auxiliaris internationalis 2017-10-28T18:56:45Z 1629 1454
Vallis Segusiensis 2017-10-25T21:52:04Z 472 436
Vallis Helnae 2017-10-25T11:50:13Z 832 785
Allegoria 2017-10-25T11:41:38Z 2656 2586
Veiorum obsidio 2017-10-22T19:20:29Z 661 638
Zittersheim 2017-10-22T18:45:23Z 433 379
Rupes Cauchy 2017-10-20T17:12:02Z 312 283
Sölden (Badenia-Virtembergia) 2017-10-19T21:40:16Z 528 481
Cannabidiol 2017-10-18T11:48:21Z 704 675
Zelnuk inferior 2017-10-16T14:06:23Z 557 526
Arrabona (urbs antiqua) 2017-10-16T14:03:11Z 379 272
Ayka 2017-10-16T14:02:15Z 642 611
Elisenda de Montcada 2017-10-16T12:39:53Z 1095 879
Andalién 2017-10-15T12:59:19Z 800 769
Homo sapiens idaltu 2017-10-15T12:10:21Z 1090 1013
Lourdoueix-Saint-Pierre 2017-10-15T11:58:44Z 569 525
Pelagonius 2017-10-14T19:19:41Z 1897 1689
Arbouet-Sussaute 2017-10-14T14:27:07Z 523 467
Fresnes (Lidericus et Carus) 2017-10-14T14:23:26Z 744 622
Neuilly-Plaisance 2017-10-14T14:20:42Z 1081 989
Cléville (Sequana Maritima) 2017-10-14T14:19:26Z 763 707
Ludovicus Ganne 2017-10-14T14:18:30Z 687 570
Verrières (Olina) 2017-10-11T12:55:03Z 643 599
Agamidae 2017-10-11T12:53:50Z 2734 2708
Saint-Aubin-de-Courteraie 2017-10-11T12:45:40Z 560 516
Universitas Dunelmensis 2017-10-10T14:20:53Z 4258 4217
Caerimonia coffei 2017-10-09T14:05:50Z 1956 1864
Curriculum (via) 2017-10-09T12:47:03Z 583 564
Scuba 2017-10-09T12:32:58Z 691 636
Burcy (Calva Dorsa) 2017-10-09T12:28:41Z 593 538
Novigentum ad Eburam 2017-10-09T12:27:54Z 621 565
Pattensen 2017-10-09T12:27:11Z 1634 1558
Fort-Moville 2017-10-09T12:24:55Z 678 634
Rapilly 2017-10-09T12:24:01Z 482 427
Soulitré 2017-10-09T12:23:08Z 446 401
Alytus (districtus) 2017-10-09T12:21:33Z 410 374
Noroy-le-Bourg 2017-10-09T12:19:55Z 800 745
Ozon (Ardesca) 2017-10-09T12:18:48Z 544 499
Grand-Laviers 2017-10-09T12:17:57Z 505 460
Suscis * 2017-10-08T21:48:05Z 735 627
Clavicen 2017-10-08T21:47:16Z 1570 1527
Rhodope 2017-10-08T21:47:07Z 533 501
Beirdd yr uchelwyr 2017-10-07T12:23:41Z 410 313
Carolus Szymanowski 2017-10-07T12:17:34Z 719 581
Romeries 2017-10-07T12:13:18Z 605 554
Bonchamp-lès-Laval 2017-10-07T12:11:47Z 559 513
Monthey (districtus) 2017-10-07T12:06:17Z 374 351
Carcagny 2017-10-07T12:01:37Z 420 365
Respublica Popularis Hungariae 2017-10-07T11:57:40Z 623 568
Waltharius Aquitanus 2017-10-06T14:28:32Z 778 713
Damnatio ad metalla 2017-10-05T14:44:39Z 399 369
Summa supplicia 2017-10-05T14:43:59Z 1025 995
Vinculum cummeum 2017-10-05T13:11:22Z 307 236
Calidoscopium 2017-10-05T12:59:58Z 1001 942
Harpastum Americanum * 2017-10-05T12:09:43Z 583 469
Supermercatus * 2017-10-04T23:30:03Z 1054 980
Cinetoscopium 2017-10-04T23:05:04Z 974 894
Scalae versatiles * 2017-10-04T22:53:27Z 477 400
Annus quinque imperatorum 2017-10-03T14:59:54Z 1925 1875
Ioannes Soranzo 2017-10-03T14:54:23Z 898 788
Linum 2017-10-03T14:47:41Z 719 557
Alexandra Clements 2017-10-01T21:55:34Z 792 731
Maria-Helena Mélard-Marganne 2017-09-30T12:18:31Z 485 297
Pumilio alba * 2017-09-30T12:16:02Z 2797 2774
Barbara Pym 2017-09-29T12:27:52Z 586 408
Catharina Atkinson 2017-09-29T12:15:46Z 578 391
Balanod 2017-09-29T12:15:06Z 433 390
Rabies * 2017-09-28T19:55:56Z 515 491
Principalitas Terrae Maris 2017-09-27T12:24:45Z 749 727
Xochiquetzal 2017-09-27T12:06:03Z 577 541
Berbere 2017-09-27T12:04:03Z 877 792
Bersaillin 2017-09-27T11:58:39Z 448 405
Sultanus * 2017-09-27T11:57:53Z 374 316
Capellanus 2017-09-26T22:51:13Z 378 344
Universitas Ioannes Wolfgang Goethe Francofurtensis * 2017-09-26T21:46:31Z 1186 1090
Historia artis * 2017-09-26T21:27:29Z 1886 1854
Adjoña 2017-09-25T17:26:02Z 929 849
Rorate 2017-09-25T12:27:18Z 1803 1759
Acaimo 2017-09-24T23:47:01Z 954 874
Pelicar 2017-09-24T23:29:39Z 928 848
Pelinor 2017-09-24T23:28:45Z 927 847
Romen 2017-09-24T23:28:05Z 920 840
Tegueste II 2017-09-24T23:26:23Z 958 878
Onomastica 2017-09-24T13:43:02Z 1255 1182
Gilbertus 2017-09-23T21:46:53Z 459 341
Georgius Stuhr 2017-09-23T21:46:51Z 583 519
Viceregnum 2017-09-23T12:17:36Z 2695 2648
Pisanus 2017-09-23T12:04:08Z 657 563
Wu Cheng'en 2017-09-23T11:51:01Z 718 529
Ecclesia cathedralis (Colonia Agrippina) * 2017-09-23T02:33:52Z 1215 1016
Ritus 2017-09-22T16:31:17Z 443 375
Korb 2017-09-22T10:21:22Z 626 579
Scotti 2017-09-21T17:16:50Z 386 364
Delineatio * 2017-09-20T15:53:13Z 638 550
Informatio * 2017-09-20T13:17:08Z 1501 1421
Templum Baptistarum Montis Vernon 2017-09-20T12:48:55Z 627 546
Index montium in Terra Mariae 2017-09-20T12:44:21Z 3921 3868
Philippus Blond 2017-09-20T12:42:13Z 2070 1940
Oratio 2017-09-19T11:05:12Z 5078 4981
Clavis memorialis USB 2017-09-18T11:18:47Z 1628 1566
Paulus Cauwès 2017-09-16T21:49:29Z 576 388
Abraxas 2017-09-16T13:17:44Z 1615 1534
Nucatum 2017-09-15T16:39:49Z 1131 1107
Lex digitalis 2017-09-14T23:50:58Z 879 796
Maupas/Valency 2017-09-14T18:30:07Z 666 633
Montriond/Cour 2017-09-14T18:29:37Z 678 645
Regio ecclesiastica Langobardiae 2017-09-13T14:02:50Z 1557 1409
Caietanus Filangieri 2017-09-12T13:10:12Z 914 769
Offenbachium ad Moenum 2017-09-11T12:56:13Z 432 378
Urbs Sancti Petri de Pace 2017-09-11T08:40:39Z 1026 997
Grandpa Beagle 2017-09-11T01:26:08Z 567 449
Professor Zapotec 2017-09-11T01:22:06Z 593 475
Tredecim Martyres 2017-09-09T12:04:49Z 761 693
Principatus Valachiae 2017-09-09T11:24:44Z 761 661
Ius commune 2017-09-09T11:20:44Z 378 348
Orion (Philippinae) 2017-09-09T11:19:32Z 1230 1147
Seamus O'Hara 2017-09-09T04:54:54Z 471 353
Geretrudis 2017-09-09T04:48:03Z 457 339
Doctor Kranz 2017-09-09T04:46:23Z 469 351
Ottoperotto 2017-09-09T04:35:22Z 620 454
Odislo 2017-09-08T06:02:35Z 444 401
Universitas Californiensis Angelopolitana * 2017-09-07T10:35:50Z 546 457
Langstrasse (Turicum) 2017-09-06T21:16:30Z 568 537
Saint-Gervasy 2017-09-06T11:04:20Z 444 398
Ducatus * 2017-09-04T14:41:00Z 488 435
Philosophiae doctor 2017-09-04T09:32:01Z 385 285
Vallis Menasii 2017-09-03T21:56:16Z 806 774
Lysithea (Oceanis) 2017-09-03T16:36:53Z 426 401
Lamentatio sanctae matris ecclesiae Constantinopolitanae 2017-09-02T23:32:25Z 1678 1656
Guenevera White (actrix pornographica) 2017-09-02T23:32:10Z 843 710
Fra Fee 2017-09-02T23:32:07Z 527 418
De litteris colendis 2017-09-02T23:31:57Z 630 575
Arsenius Papacioc 2017-09-02T23:31:36Z 2074 2072
Litterae texturae 2017-09-02T22:40:24Z 618 616
Unificatio Italiae * 2017-09-02T14:18:45Z 2424 2388
Pronomen relativum 2017-09-01T18:01:16Z 1232 1202
Mixtura * 2017-09-01T01:58:11Z 1367 1345
Membra Iesu Nostri 2017-09-01T01:55:52Z 1917 1774
Constructivismus 2017-08-31T19:22:51Z 1138 1055
Randaberg 2017-08-30T11:37:42Z 442 408
Miéry 2017-08-30T11:34:15Z 428 385
Michael Mittermeier 2017-08-30T11:18:54Z 690 636
Pyramis Studnitia 2017-08-29T17:38:34Z 1410 1366
Lija 2017-08-29T13:23:36Z 432 399
Fgura 2017-08-29T13:21:57Z 446 413
Attard 2017-08-29T13:20:26Z 388 355
Ħamrun 2017-08-29T13:19:36Z 371 338
Molay (Iura) 2017-08-29T13:18:20Z 435 392
Barbeville 2017-08-29T13:16:25Z 428 373
Grâces 2017-08-29T13:15:58Z 510 457
Saint-Gouéno 2017-08-29T13:15:20Z 493 440
Châteauneuf-d'Oze 2017-08-29T13:14:33Z 578 523
Paeninsula Capitis Eboraci * 2017-08-29T13:13:49Z 487 408
Linas (Exona) 2017-08-29T13:07:25Z 766 722
Saint-Pierre-Roche 2017-08-29T13:02:29Z 511 462
Pitheculites 2017-08-29T13:00:19Z 1897 1808
Aquitania (pristina regio administrativa) 2017-08-29T00:54:26Z 1468 1403
Arvernia 2017-08-29T00:52:40Z 798 757
Scelus contra humanitatem 2017-08-28T13:15:26Z 918 855
Saint-Michel-de-Chavaignes 2017-08-28T12:17:03Z 521 476
Chlorus 2017-08-28T12:16:04Z 513 490
Obrechies 2017-08-28T12:15:28Z 515 464
Parcey 2017-08-28T12:13:57Z 497 454
Wittnau (Badenia-Virtembergia) 2017-08-28T12:12:14Z 448 401
Jusix 2017-08-28T12:09:31Z 429 374
Universitas Brigantii Flavii 2017-08-27T18:00:35Z 1014 945
Capricorni tropicus * 2017-08-27T15:32:16Z 1492 1432
Cartoon Network 2017-08-27T12:21:06Z 753 719
Oregonia 2017-08-27T12:17:56Z 1553 1527
Montbeugny 2017-08-27T11:13:53Z 408 362
Drouilly 2017-08-27T11:13:12Z 454 408
Dachsberg 2017-08-27T11:12:03Z 524 477
Antonius Tosti 2017-08-27T11:11:09Z 478 300
Nizas (Aegirtius) 2017-08-27T11:10:45Z 495 449
Grand Champion international de course 2017-08-27T11:09:23Z 599 554
Crenatosiren 2017-08-27T11:04:14Z 1457 1434
Universitas Lodziensis 2017-08-27T11:03:21Z 732 662
Heraclidae (Euripides) 2017-08-27T11:02:20Z 611 428
Étrépilly (Axona) 2017-08-27T11:00:22Z 550 506
Oberstenfeld 2017-08-26T11:43:09Z 524 477
Teresia 2017-08-26T11:40:25Z 448 276
Argenteus 2017-08-26T11:29:17Z 572 549
Dernancourt 2017-08-26T11:27:54Z 495 450
Foncine-le-Bas 2017-08-25T11:46:55Z 464 421
Gruny 2017-08-25T11:45:54Z 475 430
Miles Iosephus Berkeley 2017-08-25T11:44:55Z 744 605
Ragonius Venustus 2017-08-25T11:42:14Z 812 694
Gomer (Pyrenaeus Atlanticus) 2017-08-25T11:41:12Z 384 328
Requiescat in pace 2017-08-25T11:39:01Z 842 808
Minerva Mus 2017-08-25T11:37:02Z 450 284
Archaeologia Mediterranea 2017-08-25T11:32:16Z 4053 3699
Ignatius Semmelweis 2017-08-25T11:30:35Z 990 883
Baupte 2017-08-25T11:29:59Z 659 605
Garlède-Mondebat 2017-08-25T11:28:52Z 422 366
Friderica Pellegrini 2017-08-25T11:27:33Z 589 432
Lingua Kharia 2017-08-24T11:19:57Z 1481 1406
Rudolphus Schottlaender 2017-08-24T11:15:56Z 1700 1416
Gondenans-les-Moulins 2017-08-24T11:11:52Z 600 557
Reichstett 2017-08-24T11:11:02Z 427 373
Commenailles 2017-08-24T11:09:51Z 454 411
Iohannes Decumanus 2017-08-24T11:07:15Z 409 353
Sillustaniidae 2017-08-24T11:03:46Z 1531 1504
Dickens Comitatus 2017-08-24T11:03:08Z 408 273
Viti Levu 2017-08-23T13:28:05Z 399 372
Collegium Sancti Edmundi (Cantabrigia) 2017-08-23T12:39:44Z 546 461
Melchior Cibinensis 2017-08-23T12:31:58Z 746 571
Novicastrum (districtus) 2017-08-23T12:31:19Z 427 389
Universitas Minnesotensis 2017-08-23T12:26:05Z 841 744
Georgius Basiliu 2017-08-23T12:23:53Z 574 463
Bussu (Samara) 2017-08-22T11:43:18Z 478 433
Ioannes Paulus Tavares Esperança 2017-08-22T11:41:25Z 863 653
Franciscus de Saldanha da Gama 2017-08-22T11:39:53Z 478 330
Avondance 2017-08-22T11:39:01Z 604 553
Salazac 2017-08-22T11:33:40Z 415 369
Communitas Germanophona Belgicae 2017-08-22T11:32:49Z 1259 1236
Dioecesis Osnabrugensis 2017-08-22T11:29:30Z 1495 1399
Rudolphus Kittel 2017-08-21T11:25:33Z 762 656
Antoninus Reicha 2017-08-21T11:23:15Z 541 410
Carolus I Gonzaga 2017-08-21T11:19:12Z 467 323
Spirostachys africana 2017-08-21T11:18:06Z 712 588
Massa planckiana 2017-08-21T11:15:13Z 1450 1427
Le Roi Est Mort, Vive Le Roi! 2017-08-20T11:30:01Z 964 908
Nomen triviale 2017-08-20T11:28:53Z 450 399
Marcus Pomponius Maecius Probus 2017-08-20T11:10:18Z 766 670
Picardia 2017-08-18T12:33:14Z 1107 1066
Hermannus Ehlers 2017-08-18T12:32:10Z 2141 1882
Potestas iudicialis * 2017-08-18T12:27:11Z 691 637
Universitas Publica Paedagogica Altaica 2017-08-18T12:26:20Z 1078 950
Coppa Italia 2017-08-18T12:25:20Z 2735 2671
Serie A 2017-08-18T12:22:49Z 27363 27290
Carpi F.C. 1909 2017-08-18T12:22:07Z 563 466
Capitalis quadrata 2017-08-16T21:45:41Z 1072 1043
Tabardus 2017-08-15T11:07:10Z 923 809
Rory McCann 2017-08-15T10:56:49Z 456 333
Selbu 2017-08-15T10:55:27Z 459 425
Rocking in Latin 2017-08-13T11:07:50Z 898 726
Oreailurus 2017-08-13T11:05:41Z 644 588
Iurassicum superius 2017-08-09T13:06:05Z 378 294
Cancri tropicus * 2017-08-06T23:30:16Z 1360 1300
Universitas Malavii 2017-08-06T16:27:32Z 699 632
Meoqui 2017-08-05T12:08:45Z 1577 1523
Armarium * 2017-08-04T20:36:44Z 613 579
Monopsonium 2017-08-03T18:26:46Z 382 357
Paeninsula * 2017-08-02T15:15:12Z 531 502
Command & Conquer: Red Alert 2017-08-01T12:13:28Z 6048 6013
Der Schuh des Manitu 2017-08-01T12:03:06Z 1388 1285
PSM-EN 2017-08-01T12:00:53Z 1231 1129
Mille passus quadrati 2017-07-31T16:34:42Z 284 229
Gulielmus Self 2017-07-30T11:54:50Z 408 252
Aethiops non albescit 2017-07-29T14:04:35Z 1563 1385
Index praefecturarum Iaponiae 2017-07-26T20:06:12Z 1685 1646
Louisenfeldum 2017-07-26T11:09:29Z 1335 1306
Toplicium 2017-07-26T10:53:18Z 2047 1996
Tunicula flava 2017-07-26T03:59:27Z 2201 597
Eros Riccio 2017-07-25T21:51:49Z 1593 1509
Clemens Janequin 2017-07-25T11:34:40Z 882 753
Osaka Orientalis 2017-07-25T11:13:35Z 392 342
Anastasius II (imperator) 2017-07-24T11:05:19Z 1746 1561
Serrhae 2017-07-19T17:23:48Z 869 822
Elena Tauscher 2017-07-19T12:48:26Z 526 370
Carbo ligni * 2017-07-17T15:45:55Z 379 319
Qui-Gon Jinn 2017-07-15T20:19:18Z 968 921
Naucalpan de Juárez 2017-07-15T00:30:48Z 540 481
Pelorrhoea 2017-07-06T13:55:34Z 1374 1298
Christina Grimmie 2017-07-04T01:59:21Z 960 839
Calliope Bukle 2017-07-03T21:21:50Z 535 464
Basilea (pagus) 2017-07-01T14:18:05Z 310 252
The Princess Bride 2017-07-01T00:38:53Z 709 643
Piscina * 2017-06-28T11:36:21Z 688 656
Saligney 2017-06-27T14:24:31Z 439 396
Crissiumal 2017-06-26T19:08:53Z 322 272
Margarita Maria Burgunda 2017-06-23T12:00:53Z 1176 1050
Nunc est gaudendum 2017-06-22T20:56:58Z 517 485
Athleta 2017-06-22T18:44:23Z 613 559
Umbra 2017-06-21T21:44:22Z 450 382
Namurcum (provincia) 2017-06-19T22:30:21Z 337 256
Flandria Orientalis 2017-06-19T22:30:17Z 295 260
Rogerius van der Weyden 2017-06-19T22:28:24Z 1515 1450
Henricus Pirenne 2017-06-19T22:24:42Z 806 685
Abbeciae 2017-06-19T22:11:43Z 340 310
Universitas Gandavensis 2017-06-19T22:11:09Z 2047 1939
Carolus de Noyelle 2017-06-19T22:08:36Z 357 252
Everardus Mercurian 2017-06-19T22:08:33Z 358 253
Anvinium 2017-06-19T22:06:13Z 331 308
Atomium 2017-06-19T22:06:02Z 902 879
Wattignies 2017-06-19T13:16:50Z 649 569
Ansa 2017-06-17T11:21:11Z 721 694
Ophidiasteridae 2017-06-16T22:52:26Z 3777 3700
Cascadia (motus) 2017-06-15T15:55:21Z 551 515
Cordillera Blanca 2017-06-14T02:10:02Z 620 576
Proix 2017-06-13T11:24:34Z 621 577
Adelhaidis (fabula) 2017-06-12T16:50:43Z 742 621
Ponginae 2017-06-12T11:41:05Z 715 690
Territoria septentrio-occidentalia (Canada) 2017-06-11T20:53:17Z 646 585
Crista sagittalis 2017-06-10T22:13:12Z 587 563
Anatidae * 2017-06-10T19:49:11Z 1014 911
Scientia Biblica 2017-06-10T12:43:01Z 1242 1220
Pactio 2017-06-10T12:36:00Z 674 545
Benedictus Friedlaender 2017-06-09T10:30:18Z 847 678
Ventura de la Vega 2017-06-08T13:21:06Z 646 412
Tresa Rüthers-Seeli 2017-06-07T11:33:02Z 392 270
Gustavus I (rex Sueciae) 2017-06-06T13:49:12Z 744 659
Carolus Porta 2017-06-06T13:36:04Z 668 466
Maurus Pisini 2017-06-06T13:29:07Z 408 215
Adamus Nádasdy 2017-06-05T11:20:05Z 916 776
Mesomedes Cretensis 2017-06-04T14:23:41Z 540 318
Alda Merini 2017-06-04T14:22:30Z 582 414
Thomas Lindner 2017-06-04T14:07:50Z 1045 801
Marcus Lakebrink 2017-06-04T14:03:05Z 861 664
Bandarra 2017-06-03T13:16:16Z 1157 1000
Jasmin 2017-06-03T13:10:40Z 597 448
Ioanna Agnes a Cruce 2017-06-03T13:05:17Z 2427 2223
Ioannes Helmsius 2017-06-03T12:04:14Z 1139 929
Ludovicus Bødtcher 2017-06-02T13:13:18Z 452 271
Carolus Ploug 2017-06-02T13:10:30Z 494 282
Guido Guinizelli 2017-06-02T11:31:36Z 376 231
Barnabas Googe 2017-06-02T11:06:03Z 509 339
Antonius Gamoneda 2017-06-02T10:48:33Z 531 380
Gaius Lucilius 2017-06-02T10:25:58Z 819 582
Spectaculum Hominis Ardentis 2017-06-01T22:45:01Z 832 771
Hills Road Sixth Form College 2017-06-01T22:44:26Z 577 520
Gansbaai 2017-06-01T22:44:24Z 737 690
Franciscus Fàbregas 2017-06-01T14:27:52Z 621 584
Qyz quu 2017-06-01T14:01:05Z 860 696
Universitas al-Qarawīīn * 2017-05-31T15:08:24Z 879 771
Amy Goodman 2017-05-31T11:11:41Z 842 643
Lesco Dlugossius 2017-05-31T10:45:16Z 416 297
Michael Pence 2017-05-30T18:33:38Z 1148 1023
Aloysius Cernuda 2017-05-30T10:45:42Z 608 457
Hibari Misora 2017-05-29T11:39:39Z 1252 1136
Iustus Vondelius 2017-05-28T17:46:11Z 728 535
Thomas a Kempis 2017-05-28T17:44:05Z 733 466
Otto Harbach 2017-05-28T17:10:26Z 623 449
Ioannes Berchet 2017-05-28T16:58:18Z 667 522
Matthaeus Bandello 2017-05-28T16:50:32Z 884 624
Savukoski 2017-05-28T11:39:39Z 1125 1074
Sigismundus Ritoók 2017-05-27T18:36:56Z 765 631
Gerardus de Nerval 2017-05-27T14:16:06Z 1023 784
Gulielma Holiday 2017-05-27T13:52:10Z 484 320
Ludovicus Racine 2017-05-27T13:19:14Z 697 476
Alphonsus de Lamartine 2017-05-27T13:08:49Z 994 770
Ioannes Chapelain 2017-05-27T12:55:28Z 667 475
Philippus Quinault 2017-05-27T12:46:46Z 721 495
Ioannes Baptista Le Rond d'Alembert * 2017-05-27T12:44:37Z 1046 721
Gulielmus Colletet 2017-05-27T12:39:11Z 1195 932
Universitas Autonoma Assumptionis 2017-05-27T00:26:27Z 938 837
Caspira Libera 2017-05-26T11:17:15Z 1120 1071
Iudex Maximus Civitatum Foederatarum 2017-05-25T12:07:55Z 496 451
Tohoku 2017-05-25T11:23:17Z 969 936
Malum (ethica) * 2017-05-24T15:40:27Z 953 783
Charta PHQ 2017-05-24T15:08:51Z 670 635
Tauropus 2017-05-24T11:26:32Z 590 502
Adolphus Koelsch 2017-05-22T11:12:46Z 564 373
Meridies (pars caeli) * 2017-05-22T10:53:47Z 313 230
Unitates naturales 2017-05-20T21:31:57Z 524 503
Securitas cibaria 2017-05-19T17:06:47Z 1029 976
Antena 3 2017-05-17T20:41:41Z 1343 1306
Onomastica Sinica 2017-05-17T19:39:25Z 1110 1068
Alpha Pavonis 2017-05-17T12:32:39Z 373 338
Alpha Gruis 2017-05-17T12:21:41Z 384 349
Beta Crucis 2017-05-17T12:19:56Z 357 322
Merops revoilii 2017-05-16T18:23:38Z 977 812
Struthio molybdophanes 2017-05-16T18:14:03Z 1031 865
Robinson Crusoeus * 2017-05-15T21:22:49Z 781 627
Signum astrologicum 2017-05-15T20:00:06Z 1331 1279
Gaslighting 2017-05-14T16:11:24Z 353 298
Cyphoscoliosis 2017-05-14T16:08:07Z 353 332
Thorax orthopaedicus 2017-05-14T16:07:54Z 353 329
Res Publica Lusitanica Prima 2017-05-14T16:05:13Z 312 275
Diddy Kong 2017-05-05T12:02:04Z 1413 1324
Isabella Austriaca 2017-05-05T11:51:34Z 1440 1341
Augusta (titulus) 2017-05-03T16:55:47Z 275 208
Teenage Mutant Ninja Turtles 2017-05-01T16:44:04Z 301 267
Posio 2017-05-01T16:40:38Z 694 643
Lardum 2017-05-01T16:34:55Z 322 288
Ioannes Bernardus Leo Foucault * 2017-05-01T16:33:39Z 1009 843
Albertus Augustus Perdonnet 2017-05-01T16:20:38Z 696 587
Novaci 2017-05-01T09:08:11Z 366 329
Transvestitismus 2017-04-30T22:04:51Z 4020 3951
Robertus Schumann * 2017-04-30T21:56:29Z 1076 839
Fanon 2017-04-25T11:56:51Z 1244 1189
Garcias III Sanctii filius (rex Pampilonensium) 2017-04-25T11:19:26Z 2125 2016
Temperatura Planckiana 2017-04-24T10:49:14Z 441 349
Eremopoesis 2017-04-23T22:54:53Z 1537 1512
Neustadt in Europa 2017-04-22T16:53:00Z 764 735
Sokodé 2017-04-22T12:57:12Z 294 268
Iacobus Meyerbeer 2017-04-22T12:40:10Z 717 572
Genetica molecularis 2017-04-22T12:24:38Z 304 280
Wranglers Campenses 2017-04-20T19:51:54Z 357 289
Procuratio Nuntiorum Centralis 2017-04-18T22:10:40Z 489 411
Brabantia Septentrionalis 2017-04-18T21:55:04Z 266 226
Thaumaturgia 2017-04-18T12:41:14Z 681 610
Campoformium 2017-04-17T14:02:36Z 2528 2484
Regina Caeli 2017-04-16T21:25:32Z 1434 1369
Mustelidae * 2017-04-15T15:49:02Z 1035 1007
California Inferior 2017-04-15T11:34:40Z 436 404
Sinaloa 2017-04-15T11:20:33Z 358 326
Sonora 2017-04-15T11:19:51Z 372 340
Ascaris lumbricoides 2017-04-13T13:12:12Z 746 722
Gaius Helvius Cinna 2017-04-12T18:22:23Z 517 305
Hylobatidae * 2017-04-12T12:53:55Z 907 832
Mus (genus) * 2017-04-12T12:05:58Z 710 686
Maria a Martha castigata (Cagnacci) 2017-04-12T11:51:24Z 722 534
Weststadt (Carolsruha) 2017-04-11T11:45:06Z 557 531
Lucius et Lucia 2017-04-08T17:00:56Z 791 698
Campus Martius 2017-04-08T15:41:37Z 808 776
Sirius Niger 2017-04-07T11:45:12Z 285 226
Lucius Malfoy 2017-04-07T11:44:39Z 364 305
Hagrid 2017-04-07T11:43:50Z 470 355
Ginnia Vislius 2017-04-07T11:43:22Z 1424 1174
Ronaldus Vislius 2017-04-07T11:42:54Z 793 734
Obsidio Seraii 2017-04-05T19:40:17Z 931 741
Forum interretiale 2017-04-05T10:44:08Z 701 671
Ordinarium missae 2017-04-04T13:09:38Z 1422 1335
Ferdinandus Poo 2017-04-03T12:18:20Z 854 593
Laguncula Lugduno-Batava 2017-04-03T00:36:01Z 1345 1317
Sara Thonig 2017-04-02T18:46:31Z 930 897
Pleias tragica 2017-04-02T18:46:26Z 630 589
Pendulus Newtoni 2017-04-02T18:46:23Z 349 295
Utica (Novum Eboracum) 2017-04-01T21:30:38Z 356 322
Novum Castrum 2017-04-01T21:30:19Z 356 209
Lascaux (Curretia) 2017-04-01T21:01:30Z 566 519
Bicoca 2017-04-01T20:59:22Z 636 580
Athene noctua * 2017-03-31T12:09:48Z 869 839
Ioannes Ludovicus Fournier 2017-03-30T11:29:27Z 535 372
Chilopoda * 2017-03-29T12:22:55Z 461 435
Arnobius Junior 2017-03-29T12:10:44Z 2067 1935
Scarabaeidae * 2017-03-29T11:51:25Z 1004 923
Orthoptera * 2017-03-29T08:45:54Z 894 795
Vuillery 2017-03-28T16:40:19Z 573 529
Servitus (ius) 2017-03-27T12:02:11Z 1146 1122
Odontoblastus 2017-03-25T12:56:34Z 314 230
Homininae 2017-03-23T10:56:28Z 633 566
Pseudomonas aeruginosa 2017-03-22T12:31:36Z 652 628
Castra operaria 2017-03-22T12:10:21Z 662 529
Anarcho-syndicalismus 2017-03-21T09:48:04Z 928 899
Universitas Gadjah Mada 2017-03-15T18:16:20Z 396 325
Ioannes Saß 2017-03-13T12:09:48Z 379 242
Demetrius Sunimirio 2017-03-12T22:22:47Z 358 272
Bahir Dar 2017-03-12T22:22:23Z 357 325
Escevegia 2017-03-12T11:01:39Z 814 785
Promunturium Dianium 2017-03-07T14:05:38Z 617 559
Index rerum urbanis studiis 2017-03-07T11:51:10Z 658 603
Futhark Vetustius 2017-03-06T17:53:10Z 375 348
Obligatio solidalis 2017-03-06T17:52:06Z 355 325
Dylan Kussman 2017-03-06T17:51:40Z 354 251
Pistor 2017-03-06T17:51:29Z 354 324
Hochelaga 2017-03-06T17:49:01Z 354 322
Via aquaria 2017-03-06T17:48:33Z 352 298
Ludovicus Jara 2017-03-06T17:48:25Z 354 271
Laura Alonso Padin 2017-03-02T23:09:02Z 340 246
Immaculata Cuesta 2017-03-02T23:08:53Z 407 300
Musicographus 2017-02-28T13:22:10Z 1467 1381
Amidei 2017-02-27T18:41:01Z 1389 1292
Judas Priest 2017-02-27T13:53:30Z 1342 1302
Grave metallum 2017-02-27T13:50:46Z 1103 1071
Urbs Paulinia 2017-02-27T07:50:26Z 383 331
Brumado 2017-02-27T07:38:51Z 1939 1903
Trindade 2017-02-27T07:26:39Z 604 489
Philatelista 2017-02-26T21:25:37Z 440 378
Cithara Canaria 2017-02-26T19:05:43Z 551 454
Dioecesis Bakeriensis 2017-02-24T19:35:01Z 463 292
Cabdirashiid Cali Sharmaarke 2017-02-21T13:58:04Z 562 391
Brephotropheum 2017-02-21T03:02:50Z 571 548
Gloria Patri 2017-02-19T04:52:05Z 818 784
Theatrum lyricum 2017-02-18T17:36:29Z 860 765
Vici pistorienses 2017-02-16T19:10:51Z 1475 1357
Alfredus Hope Patten 2017-02-15T13:31:33Z 1672 1547
Homo habilis 2017-02-13T18:22:01Z 985 915
Terra baixa 2017-02-07T14:49:50Z 1021 900
Nymphaea lotus 2017-02-06T16:39:19Z 538 306
Bonifacius Amerbachus 2017-02-05T19:29:09Z 364 362
Iohannes Rodolfus Wetsteinius 2017-02-05T19:28:27Z 327 325
Ecclesia Memoriae Gulielmi Imperatoris 2017-02-05T19:07:32Z 1111 1109
Tactus * 2017-02-05T14:51:46Z 703 656
Universitas Nationalis Erevanensis 2017-02-05T12:53:47Z 346 275
Thuringi 2017-02-05T12:52:02Z 694 604
Valachi 2017-02-03T15:02:20Z 730 708
Remigius 2017-02-03T14:40:41Z 1124 993
Cassis * 2017-02-03T14:16:31Z 375 349
Res novae Americanae 2017-01-31T20:01:23Z 651 567
Sastamala 2017-01-31T13:05:24Z 903 695
Pello 2017-01-31T12:53:04Z 857 806
Tervola 2017-01-31T12:52:19Z 825 774
Loimaa 2017-01-31T12:17:19Z 1105 982
Windows Vista 2017-01-30T17:49:00Z 380 320
Ariidae 2017-01-30T13:57:31Z 1302 1241
Pharmacopolium 2017-01-30T10:41:19Z 347 288
Quadi 2017-01-30T09:14:44Z 650 627
Ixodida 2017-01-30T04:37:47Z 807 718
Traiectum ad Rhenum (provincia) 2017-01-29T13:23:54Z 593 553
Viminacium 2017-01-29T09:29:04Z 529 457
Testis * 2017-01-29T09:22:08Z 507 485
Salla 2017-01-29T02:10:31Z 828 777
Commissio Securitatis Publicae URSS * 2017-01-27T12:34:58Z 934 874
Huell Howser 2017-01-26T08:00:18Z 598 470
Chlamydia 2017-01-24T14:46:30Z 350 326
Road Town 2017-01-24T14:46:18Z 353 241
Canal J 2017-01-24T14:46:08Z 351 263
Willingen 2017-01-24T14:44:57Z 351 322
Centuriatio 2017-01-24T14:44:40Z 351 323
Coccum (baca) 2017-01-24T14:44:28Z 351 305
Klepp 2017-01-24T14:42:51Z 349 318
Laetala 2017-01-24T13:06:55Z 802 645
Viridarium Beierianum 2017-01-23T12:43:29Z 1546 1359
Sainte-Reine (Arar Superior) 2017-01-22T17:12:35Z 614 559
Papocinetum 2017-01-21T22:07:30Z 641 584
Asimina (Virginia Occidentalis) 2017-01-18T20:11:36Z 304 260
Pelkosenniemi 2017-01-18T12:49:16Z 990 939
Aaron Burr 2017-01-16T11:36:01Z 824 647
Parmenides (Plato) 2017-01-14T21:59:44Z 429 328
Pigmentum (pictura) * 2017-01-14T21:52:01Z 710 687
Sola scriptura 2017-01-14T14:50:46Z 458 384
Prophetia Habacuc 2017-01-11T20:36:16Z 405 383
Prophetia Sophoniae 2017-01-11T20:34:26Z 421 399
Claudia Borroni 2017-01-08T23:25:15Z 482 401
Acetonum * 2017-01-07T10:44:19Z 624 543
Dea * 2017-01-06T20:03:39Z 1042 1002
Gernicourt 2017-01-06T18:43:00Z 570 526
Béalencourt 2017-01-06T18:32:40Z 605 554
Monnetay 2017-01-06T18:09:18Z 474 431
Saint-Jean-de-Sauves 2017-01-06T17:39:10Z 793 747
Moulicent 2017-01-06T17:36:35Z 494 450
Merri 2017-01-06T17:35:45Z 478 434
Etzling 2017-01-06T17:10:42Z 421 375
Herserange 2017-01-06T16:02:37Z 636 580
Équennes-Éramecourt 2017-01-06T15:39:17Z 708 663
Carrépuis 2017-01-06T15:36:39Z 487 442
Bouchon 2017-01-06T15:35:45Z 485 440
Sept-Vents 2017-01-06T15:25:54Z 631 576
Sept-Frères 2017-01-06T15:25:52Z 441 386
Gramen maritimum 2017-01-06T15:23:42Z 1428 1305
Sept-Forges 2017-01-06T12:20:59Z 680 636
Engenville 2017-01-06T12:15:47Z 557 510
Vers-sur-Selle 2017-01-06T12:01:39Z 696 651
Nigellum 2017-01-06T11:14:30Z 498 452
Sainte-Reine (Sabaudia) 2017-01-06T11:00:44Z 465 418
Fourmies (Septentrio) 2017-01-06T10:52:07Z 567 516
Zimming 2017-01-06T10:45:41Z 428 382
Saint-Gervais-en-Vallière 2017-01-06T09:44:33Z 593 538
Ouroux-sur-Saône 2017-01-06T09:41:49Z 637 582
Le Petit-Pressigny 2017-01-06T09:39:44Z 609 554
Fargues (Landae) 2017-01-05T23:35:56Z 429 383
Sanctus Hippolytus de Catone 2017-01-05T23:30:40Z 627 581
Sanctus Hippolytus de Monteacuto 2017-01-05T23:30:38Z 648 602
Guernanville 2017-01-05T22:27:21Z 546 502
Chanteloup (Ebura) 2017-01-05T22:23:02Z 575 531
Audriacum 2017-01-05T22:15:28Z 618 573
Sept-Sorts 2017-01-05T02:09:53Z 849 791
Aubrives 2017-01-05T01:15:33Z 684 637
Carlencas-et-Levas 2017-01-05T01:11:00Z 1011 966
Cortevaix 2017-01-05T00:56:44Z 585 530
Mâron 2017-01-05T00:49:20Z 590 546
Vauchonvilliers 2017-01-05T00:40:48Z 697 654
Sept-Saulx 2017-01-05T00:26:08Z 514 468
Giat 2017-01-05T00:18:18Z 514 465
Ségur-les-Villas 2017-01-05T00:13:11Z 504 451
Ravenoville 2017-01-05T00:02:39Z 436 382
Guéhébert 2017-01-04T23:58:00Z 453 399
Cosqueville 2017-01-04T23:56:03Z 442 388
Saint-Laurent (Oltis et Garumna) 2017-01-04T23:50:31Z 475 420
Saint-Michel-de-Dèze 2017-01-04T23:36:04Z 481 436
Serres-et-Montguyard 2017-01-04T22:19:00Z 687 642
Bulla Aurea 2017-01-03T20:06:45Z 689 595
Laconia 2017-01-03T13:51:47Z 586 529
Maximilianus II Emmanuel 2017-01-03T13:44:11Z 1752 1630
Cyrillus (patriarcha Bulgariae) 2017-01-03T13:37:49Z 662 491
Altitudo 2017-01-01T20:48:29Z 293 267
Vasconia Gallica 2016-12-31T17:24:00Z 1076 1030
Messaggero Veneto - Giornale del Friuli 2016-12-30T13:36:12Z 397 232
Le Soir 2016-12-30T12:53:57Z 476 369
Claudius the God 2016-12-30T12:36:41Z 693 495
Tages Anzeiger 2016-12-30T01:48:52Z 411 307
Yotsugana 2016-12-29T23:48:03Z 578 492
Selene 2016-12-27T20:59:10Z 823 771
Inferi 2016-12-27T15:14:12Z 374 348
Les très riches heures du duc de Berry 2016-12-27T15:11:17Z 878 648
Agaricaceae 2016-12-26T13:40:09Z 599 544
Christopher Ryti 2016-12-24T00:32:11Z 737 544
Turris Aquaria Hylliensis 2016-12-22T22:19:09Z 898 835
Domus Oresundiana 2016-12-22T22:18:44Z 748 685
Tribus (anthropologia) * 2016-12-22T14:26:29Z 1304 1272
Amyclae 2016-12-21T12:58:41Z 354 291
M.A.S. 2016-12-21T10:07:28Z 351 319
Lacus Pesclavinus 2016-12-21T10:07:13Z 364 333
Henricus Ruggeri 2016-12-21T10:06:55Z 354 322
Mitso Asenus (rex Bulgariae) 2016-12-21T10:06:33Z 346 253
Kayes 2016-12-21T10:06:26Z 354 327
Babe: Pig in the City 2016-12-21T10:06:18Z 354 238
Promunturium 2016-12-13T20:08:49Z 757 682
Michael Moore (cinematographus) 2016-12-11T17:05:31Z 596 388
Puniceus 2016-12-09T19:22:12Z 629 606
Iosephus Sancti Martini * 2016-12-09T17:25:31Z 509 507
Sinope 2016-12-06T14:21:24Z 573 440
Andreas Ryff 2016-12-03T23:06:41Z 500 386
SoHo 2016-12-03T16:33:48Z 505 472
Lower East Side 2016-12-03T16:31:53Z 603 570
Little Germany (Manhata) 2016-12-03T16:31:02Z 592 559
East Village, Manhattan 2016-12-03T16:29:24Z 624 591
Cooperative Village 2016-12-03T16:28:09Z 455 422
Sotra 2016-12-03T15:32:54Z 462 429
Urnes 2016-12-03T15:30:42Z 411 372
Gaupne 2016-12-03T15:29:03Z 643 604
Flåm 2016-12-03T15:28:37Z 391 352
Fontanetum (abbatia) 2016-12-03T14:05:45Z 477 353
Relativismus moralis 2016-12-02T05:54:08Z 939 861
Retrotabulum 2016-11-30T07:12:39Z 602 553
Imago aurea beatae Mariae Virginis 2016-11-30T01:13:10Z 933 804
Iosephus Baini 2016-11-28T20:24:27Z 367 281
Ioannes Philippus Roothaan 2016-11-28T20:23:47Z 361 252
Hierarchia 2016-11-28T18:49:40Z 752 609
Aureavallis 2016-11-25T14:37:59Z 383 288
Rocca 2016-11-24T11:10:42Z 363 335
Persona (ius) 2016-11-24T00:48:05Z 939 882
Amanda Svensson 2016-11-23T17:21:52Z 774 573
Ivor Williams 2016-11-22T13:55:07Z 1119 965
Patrocinium (Christianismus) 2016-11-20T18:49:20Z 263 215
Hyacinthus (persona mythologica) 2016-11-19T13:14:24Z 872 818
Ecclesia Pentecostalis 2016-11-19T12:30:29Z 698 618
Proelium apud Samaram 2016-11-18T10:11:09Z 359 302
Circuitus Poloniae 2016-11-18T10:10:28Z 356 331
Paenitentia 2016-11-17T14:09:11Z 1163 1120
Scientia cognitiva 2016-11-17T13:21:41Z 765 729
Secutor 2016-11-16T16:49:07Z 641 607
Retiarius 2016-11-16T13:14:27Z 858 824
Communia Croatiae 2016-11-15T13:58:25Z 650 614
Thimphu * 2016-11-08T15:52:25Z 333 287
Margarita Mitchell * 2016-11-08T12:56:34Z 1051 819
Mireille Mathieu 2016-11-07T13:40:55Z 509 476
Atlas linguarum Europae 2016-11-07T11:45:43Z 352 289
Granatum (lapis) 2016-11-07T11:45:02Z 351 280
Scottus Hahn 2016-10-28T11:18:00Z 1165 1007
Microbiologia * 2016-10-24T14:46:53Z 426 395
Ecclesia Cathedralis Fredrikstad 2016-10-23T21:11:42Z 984 881
Adolphus Nicolás 2016-10-22T14:16:34Z 688 546
Teleportatio quantica 2016-10-21T19:10:20Z 1053 991
Sei personaggi in cerca d'autore 2016-10-17T11:10:38Z 351 232
Aspergillum 2016-10-17T11:10:12Z 350 268
Tobi (insula) 2016-10-16T13:46:55Z 888 832
Magdalena Malraux 2016-10-16T03:52:42Z 678 621
Curia municipalis * 2016-10-12T19:07:39Z 577 527
Arbores Novae Zelandiae 2016-10-12T10:58:37Z 410 371
Museum Australiense 2016-10-11T12:11:39Z 1083 1016
Ellis Troughton 2016-10-10T21:09:05Z 595 456
Ibestad 2016-10-10T19:49:42Z 422 388
Glaciatus conus 2016-10-09T13:46:00Z 563 517
Universitas Gaditana 2016-10-06T13:32:44Z 423 334
Universitas Bergensis 2016-10-06T13:18:41Z 894 825
Álftanes 2016-10-04T13:59:49Z 440 376
Höfn 2016-10-04T13:58:51Z 367 328
Hola 2016-10-04T13:58:24Z 636 538
Heimaey 2016-10-04T13:57:53Z 462 391
Dýrafjörður 2016-10-04T13:57:12Z 549 486
Borga 2016-10-04T13:54:39Z 425 386
Húsavík 2016-10-04T13:51:43Z 430 399
Sandgerðisbær 2016-10-04T13:49:00Z 368 333
Hveragerði 2016-10-04T13:48:41Z 391 318
Grindavík 2016-10-04T13:48:18Z 397 324
Garður 2016-10-04T13:47:57Z 413 340
Epacta 2016-10-03T22:16:32Z 267 240
Tangun 2016-10-03T20:44:46Z 383 294
Mixticius 2016-10-01T13:27:05Z 548 479
Genus (ars) 2016-09-30T23:55:08Z 388 299
Narratio fabularum 2016-09-30T23:34:43Z 1032 971
Dioecesis Borg 2016-09-30T13:18:09Z 629 520
Inscriptiones Bir el Qutt 2016-09-27T11:49:13Z 443 351
Linguae Caucasicae 2016-09-27T04:01:05Z 1259 1223
Digramma 2016-09-26T20:04:22Z 448 324
Iambus 2016-09-26T19:57:02Z 1432 1403
Chewbacca 2016-09-24T05:41:55Z 506 459
Quadricinium nervorum 8 (Sostakovic) 2016-09-24T05:31:30Z 863 770
Linea caelestis 2016-09-21T13:56:59Z 543 495
Gala (cantrix) 2016-09-19T11:34:45Z 371 265
Arganda 2016-09-18T13:12:23Z 322 288
Ansa Orientalis Virginiae Occidentalis 2016-09-18T13:06:58Z 326 289
Albstadt 2016-09-18T13:04:07Z 1055 1011
Alveslohe 2016-09-18T13:03:23Z 339 296
Philippus Beaussant 2016-09-18T12:51:36Z 540 378
Berbera 2016-09-18T12:46:36Z 332 302
Posidonius Apameus 2016-09-18T08:54:41Z 385 172
David Seymour (photographus) 2016-09-18T08:52:41Z 749 614
Humbertus Tozzi 2016-09-18T08:52:11Z 394 362
Magnus I (rex Sueciae) 2016-09-18T08:31:42Z 368 339
Petrus Cullaz 2016-09-18T08:29:25Z 381 325
Christophorus Brown (rappista) 2016-09-18T08:28:37Z 368 250
Anna Neville 2016-09-18T08:27:40Z 371 226
Anna Parra 2016-09-18T08:27:28Z 371 266
Shelagh Fraser 2016-09-18T08:26:06Z 370 289
Petrus Fresnay 2016-09-18T08:25:51Z 376 294
Sergius Romano 2016-09-18T08:25:35Z 308 242
Aemilius Loubon 2016-09-18T08:24:52Z 314 281
Stelius Maenas 2016-09-18T08:24:20Z 370 260
Anagramma 2016-09-16T10:54:29Z 1743 1693
Universitas Asiae Mediae 2016-09-13T13:12:19Z 868 688
Georgius Dyson 2016-09-11T11:47:35Z 429 340
Temperantia 2016-09-09T11:12:39Z 990 811
Scientia mediorum * 2016-09-09T08:26:45Z 537 447
Collegium Fontium Altarum 2016-09-07T15:33:17Z 363 283
La locandiera 2016-09-07T15:32:46Z 364 245
Petrus Medgyessy 2016-09-07T15:32:35Z 366 326
Contractio 2016-09-02T13:01:36Z 539 512
Feminalia 2016-09-01T22:31:31Z 276 250
Ecclesia Cathedralis Sanctae Mariae (Sydneium) 2016-09-01T22:28:38Z 695 592
Ecclesia Cathedralis Hammariensis 2016-09-01T22:28:32Z 653 575
Ecclesia Cathedralis Diacoviensis 2016-09-01T22:28:30Z 610 508
Ecclesia Cathedralis Cordis Sancti 2016-09-01T22:28:28Z 717 638
Ionathan Lester 2016-09-01T17:11:58Z 816 607
Translitteratio 2016-09-01T15:10:29Z 900 807
Valeria Messalina 2016-08-31T19:52:16Z 1025 882
Navis longa 2016-08-31T12:36:40Z 767 628
Staurus 2016-08-30T08:43:32Z 626 579
Rosamaria Sutcliff 2016-08-29T18:02:17Z 447 309
Amanda Borden 2016-08-29T11:55:42Z 489 284
Ecclesia Cathedralis Upsaliensis 2016-08-28T02:17:27Z 648 543
Ecclesia Cathedralis Nidrosiensis 2016-08-28T01:28:00Z 580 473
Wario (series) 2016-08-27T22:49:54Z 633 491
Wario 2016-08-27T18:19:41Z 1001 935
Labor (physica) * 2016-08-27T15:09:16Z 1093 1070
Ludovicus (persona ficticia) 2016-08-26T10:40:42Z 1071 1005
Lacus Anatinus 2016-08-25T11:38:37Z 653 553
24:40 2016-08-25T11:33:10Z 536 491
Windows 95 2016-08-25T11:01:49Z 370 310
Chimalpahin 2016-08-24T12:15:39Z 821 674
Thrasymachus 2016-08-24T11:20:34Z 782 591
The Pebble and the Penguin 2016-08-23T12:13:37Z 548 402
Ioannes Cena 2016-08-23T12:09:38Z 526 360
Sagrus 2016-08-22T19:51:37Z 1144 1040
Aires Augustus Nascimento 2016-08-22T18:28:35Z 357 255
Fulgora 2016-08-22T18:28:19Z 353 261
Vanires 2016-08-22T18:28:12Z 358 331
Subrinus 2016-08-22T18:28:01Z 357 334
Programma nuntiorum 2016-08-22T18:27:36Z 354 298
Clara Oswin Oswald 2016-08-22T18:27:16Z 372 338
Monophthongizatio 2016-08-22T13:46:40Z 349 301
Universitas Nationalis Taiwanensis 2016-08-22T13:46:33Z 337 255
Chiricheim 2016-08-22T13:46:21Z 349 279
Solemniacum (abbatia) 2016-08-22T13:45:57Z 348 277
Contra proferentem 2016-08-22T13:45:29Z 348 318
Mossel Bay 2016-08-22T13:45:22Z 348 309
Ludovici mons 2016-08-22T13:45:15Z 348 293
Windows 98 2016-08-22T13:45:01Z 348 288
Dire Dawa 2016-08-22T13:44:49Z 347 315
Hundsangen 2016-08-22T13:44:40Z 346 303
Chiliometra horalia 2016-08-22T13:44:30Z 346 323
Lilia Boulanger 2016-08-22T11:41:53Z 678 470
Maritus * 2016-08-21T19:01:26Z 512 489
Essentialia negotii 2016-08-20T11:50:51Z 430 400
Polus 2016-08-19T16:58:29Z 640 614
Ius criminale * 2016-08-19T11:25:36Z 1341 1311
Opinio iuris sive necessitatis 2016-08-18T23:37:45Z 394 364
Commodore International 2016-08-18T18:48:10Z 346 307
Bellum Lamiacum 2016-08-18T18:48:03Z 346 270
TF1 2016-08-18T18:47:57Z 340 282
Lingua Sogdiana 2016-08-18T18:47:31Z 344 281
Jadowniki 2016-08-18T18:46:59Z 343 314
Ordo Ionicus 2016-08-16T16:45:52Z 366 328
Vinxtbach 2016-08-16T16:45:40Z 366 333
Curcium 2016-08-16T16:45:11Z 369 342
Cornelius Iohannes van Houten 2016-08-15T17:54:38Z 349 261
Jan Riesenkampf 2016-08-15T17:54:14Z 344 281
Mors (insula) 2016-08-15T17:54:07Z 343 313
Ecclesia Gnostica Catholica 2016-08-15T17:53:53Z 344 318
Phineas and Ferb 2016-08-14T18:35:48Z 357 297
Gorgo 2016-08-14T18:35:17Z 344 311
Windows ME 2016-08-14T18:35:07Z 348 288
Windows 8.1 2016-08-14T18:34:52Z 355 295
Hieromyces 2016-08-14T18:34:44Z 331 269
Verbum synsemanticum 2016-08-14T18:34:35Z 357 330
Lechaeum 2016-08-14T18:34:27Z 346 281
Paedagogia * 2016-08-13T19:03:35Z 1027 969
Walsall Wood 2016-08-13T18:19:57Z 446 399
2016-08-10T16:35:25Z 339 305
Bokn 2016-08-10T16:35:11Z 342 308
Bruxellae (Visconsinia) 2016-08-10T16:35:04Z 342 308
Index manifestationum "Occupy" 2016-08-10T16:34:51Z 342 281
Steventon 2016-08-10T16:34:31Z 342 297
Scutum rostrale 2016-08-10T16:34:24Z 342 308
Ludus plenus 2016-08-10T16:34:09Z 342 306
Paeninsula Michiganensis Inferior 2016-08-10T16:34:00Z 342 316
Proelium Eblanae 2016-08-10T16:33:52Z 338 246
Rugia 2016-08-10T10:39:51Z 557 524
Basileus 2016-08-09T21:11:39Z 1399 1343
Pro-wrestling 2016-08-04T12:23:01Z 776 752
Go on home British soldiers 2016-08-02T19:30:23Z 473 429
Vichtbach 2016-08-02T17:27:09Z 341 285
Tribus (taxinomia) 2016-08-02T17:25:47Z 337 302
Anunaces 2016-08-02T08:44:12Z 799 719
Eunomia (Hora) 2016-08-01T18:46:42Z 330 309
Nicolaus Radomiensis 2016-08-01T18:46:35Z 335 229
Hormon adrenocorticotropinum 2016-08-01T18:46:23Z 313 260
Cissur Maius 2016-08-01T18:46:16Z 333 280
Nanortalik 2016-08-01T08:56:45Z 397 355
Universitas Casimiri Magni 2016-07-31T21:21:58Z 363 310
Vallis Spiti 2016-07-31T21:14:24Z 375 346
Samuel Paulus Welles 2016-07-29T14:02:13Z 457 355
Castellum Vilceniense 2016-07-29T13:51:10Z 709 583
Botniae Occidentalis Comitatus 2016-07-29T13:49:43Z 477 443
Norlandiae Occidentalis Comitatus 2016-07-29T13:49:21Z 456 422
Gävleborg Comitatus 2016-07-29T13:48:58Z 461 427
Cronobergiae Comitatus 2016-07-29T13:47:06Z 492 428
Iunecopiae Comitatus 2016-07-29T13:46:04Z 435 401
The Crow 2016-07-29T13:39:50Z 701 647
Imaginatio * 2016-07-29T13:27:50Z 523 433
Marion Zimmer Bradley 2016-07-29T13:15:09Z 709 610
Christianus Fredericus Hansen 2016-07-29T13:14:29Z 615 532
Gothiae Orientalis Comitatus 2016-07-29T13:12:16Z 614 580
Taberna (commercium) 2016-07-29T11:46:00Z 1362 1337
Anna Daniae 2016-07-29T11:26:51Z 506 396
Vestmanniae Comitatus 2016-07-28T22:06:25Z 421 387
Aërophonum 2016-07-28T18:47:29Z 843 688
Dies Europae 2016-07-28T18:45:06Z 822 716
Cioceria 2016-07-28T18:43:21Z 1161 1100
Luftschiffbau Zeppelin 2016-07-28T18:30:41Z 854 725
Blekingiae Comitatus 2016-07-28T17:50:06Z 326 292
Tagali 2016-07-28T17:32:21Z 796 748
Purcelli Villa 2016-07-28T17:20:30Z 281 250
Opus sectile 2016-07-28T17:20:30Z 621 586
Camptosaurichnus 2016-07-28T17:20:29Z 604 507
Tetrasauropus 2016-07-28T17:13:26Z 601 504
Argoides 2016-07-28T17:13:21Z 595 498
Huanglongpus 2016-07-28T17:13:18Z 599 502
Navahopus 2016-07-28T17:13:16Z 596 499
Hamanosauripus 2016-07-28T17:13:12Z 602 505
Brontozoum 2016-07-28T17:13:06Z 598 501
Thomas Arne 2016-07-28T17:06:57Z 617 452
Velociraptorichnus 2016-07-28T17:02:04Z 629 532
Pibgorn 2016-07-28T16:44:36Z 276 254
Propensio animi 2016-07-28T15:18:46Z 283 255
Kata 2016-07-28T15:18:45Z 297 218
Fuentesi Fortalitia 2016-07-28T15:18:44Z 277 254
Ordinarius Fidelium Rituum Orientalium Austriae 2016-07-28T15:11:34Z 296 217
Fundatio Melissa 2016-07-28T15:11:32Z 291 229
Scutum supranasale 2016-07-28T15:10:11Z 301 267
Astrochemia 2016-07-28T15:09:54Z 293 246
Lingua Theodisca normata 2016-07-28T15:09:21Z 598 540
Theatrum prosae 2016-07-28T15:09:19Z 272 248
Ratio decidendi 2016-07-28T15:08:54Z 251 221
Ordo Corinthius 2016-07-28T15:08:52Z 306 268
Machina lavatoria * 2016-07-28T15:08:51Z 841 792
Navis lusoria 2016-07-28T15:08:38Z 694 673
Amita * 2016-07-28T15:07:43Z 321 298
Multicellulare 2016-07-28T15:07:33Z 294 270
Messapii 2016-07-28T15:07:26Z 283 243
Vocalis * 2016-07-28T15:06:02Z 275 226
Experientia * 2016-07-28T15:05:51Z 635 460
Oriens * 2016-07-28T15:05:35Z 301 250
Latitudo 2016-07-28T15:05:33Z 301 276
Nota magistratus communalis 2016-07-28T15:05:27Z 284 219
Vicus Italiae 2016-07-28T15:05:26Z 300 269
Callaum 2016-07-28T14:37:10Z 655 568
Technologia navalis 2016-07-28T13:59:51Z 345 324
Tubalia 2016-07-27T23:42:45Z 300 247
Ica 2016-07-27T16:24:38Z 343 322
Ocaml 2016-07-26T19:14:44Z 318 282
Hochfelden (Rhenus Inferior) 2016-07-26T18:56:37Z 546 492
Transcriptio linguarum Indigenarum Australianarum 2016-07-26T18:54:45Z 830 725
Paedotropheum 2016-07-26T18:52:56Z 1019 996
Fluorn-Winzeln 2016-07-26T18:52:47Z 501 454
Rothau 2016-07-26T18:52:44Z 494 440
Mietingen 2016-07-26T18:52:43Z 602 555
Bellum rusticum Germanicum 2016-07-26T18:52:00Z 891 870
Cornelius Iansenius 2016-07-26T18:51:45Z 1330 1031
Euthydemus 2016-07-26T18:51:29Z 603 502
Ludovicus de Mises 2016-07-26T18:49:32Z 836 645
Chartophylacium 2016-07-26T18:49:08Z 521 484
Machina siccatoria volubilis * 2016-07-26T18:47:38Z 548 502
Clinamen 2016-07-26T18:47:37Z 308 281
Oppositio (civilitas) 2016-07-26T18:47:32Z 787 761
Windows 8 2016-07-26T18:47:17Z 345 285
Vexilla Manchuriensia 2016-07-26T18:47:08Z 345 323
Vulpes vulpes kurdistanica 2016-07-26T18:46:50Z 345 323
The Platters 2016-07-26T18:46:34Z 345 293
Grammatica generativa 2016-07-26T18:46:05Z 688 598
Pharynx 2016-07-26T18:43:42Z 743 577
Phaenomenon 2016-07-26T18:43:04Z 1078 565
Andalusia * 2016-07-26T18:42:48Z 730 667
Periodicum 2016-07-26T18:42:09Z 492 465
Regio 2016-07-26T18:42:03Z 434 392
Corundum 2016-07-26T18:41:04Z 295 270
Wisingsburgum 2016-07-26T18:41:04Z 324 295
Academia artium 2016-07-26T18:39:23Z 560 528
CSS 2016-07-26T18:31:03Z 308 281
Mammalogia 2016-07-26T18:27:13Z 294 266
Patruus 2016-07-26T18:27:12Z 299 221
Peregrinus 2016-07-26T18:27:09Z 309 282
Pinacotheca 2016-07-26T18:26:34Z 265 235
Strand (Norvegia) 2016-07-25T16:17:13Z 364 330
Yukon 2016-07-24T22:00:31Z 361 338
Universitas Lincopiensis 2016-07-24T13:03:39Z 316 274
Golan 2016-07-22T15:32:22Z 419 360
Natatio * 2016-07-22T15:32:13Z 418 382
Vang 2016-07-22T15:31:44Z 419 385
Valdivia (Chilia) 2016-07-22T15:29:33Z 419 363
Sudermanniae Comitatus 2016-07-21T13:37:23Z 433 399
Praestigiae 2016-07-20T10:28:05Z 363 325
Riviera (districtus) 2016-07-16T16:35:00Z 360 336
Rondoniensis 2016-07-16T01:53:06Z 392 355
Vallis Ferrera 2016-07-15T16:16:18Z 359 326
Vallis Roseg 2016-07-14T18:58:29Z 366 335
Ségou 2016-07-14T18:57:28Z 365 305
Universitas Internationalis Floridensis 2016-07-14T18:57:21Z 367 280
Vivo per lei 2016-07-12T18:14:07Z 338 240
Vita nocturna 2016-07-12T18:13:41Z 337 309
Regio Piurensis 2016-07-12T15:16:29Z 787 734
Oratio obliqua 2016-07-11T21:18:01Z 984 929
Iulietta (satelles) 2016-07-11T20:30:35Z 343 311
Olympia aestiva 1992 2016-07-09T01:34:09Z 912 860
Thallo 2016-07-08T02:20:08Z 329 308
Parva sed apta mihi 2016-07-07T12:45:11Z 338 304
Bellae artes 2016-07-04T13:28:23Z 1219 1200
Abruptum 2016-07-02T22:18:54Z 621 554
Yakety Sax 2016-07-02T19:22:53Z 333 283
Tiro 2016-07-01T22:17:21Z 331 307
Sado (insula) 2016-06-27T00:03:06Z 318 249
Eurotas 2016-06-27T00:02:37Z 326 262
Acarnania 2016-06-27T00:02:17Z 326 293
Stuart Bloom (persona ficta) 2016-06-26T18:36:15Z 326 270
Coda 2016-06-25T22:05:17Z 637 571
In Through the Out Door 2016-06-25T22:05:05Z 512 472
Presence 2016-06-25T22:04:58Z 389 323
Physical Graffiti 2016-06-25T22:04:50Z 1209 1143
Houses of the Holy 2016-06-25T22:04:43Z 784 718
Led Zeppelin III 2016-06-25T22:04:34Z 697 631
Led Zeppelin II 2016-06-25T22:04:21Z 781 715
Led Zeppelin I 2016-06-25T22:04:13Z 725 659
Penthesilea 2016-06-24T19:37:35Z 352 328
Habib Koité 2016-06-24T19:37:16Z 361 282
Gulielmus Lassell 2016-06-24T19:37:05Z 365 296
Longitudo nodi ascendentis 2016-06-24T19:36:55Z 259 233
Caput boreale (Africa Australis) 2016-06-24T18:51:07Z 602 558
Saligia 2016-06-23T20:03:54Z 325 230
Kati 2016-06-23T20:03:43Z 324 302
Petroburgum (Virginia Occidentalis) 2016-06-23T20:03:08Z 325 254
La villeggiatura 2016-06-23T20:02:47Z 325 206
Numerus tributarius 2016-06-23T20:02:12Z 324 246
Quercus Montana (Virginia Occidentalis) 2016-06-23T20:01:47Z 324 280
Mopti 2016-06-23T20:01:24Z 323 296
Mneme (Musa) 2016-06-23T20:00:52Z 319 262
Historia scientiae * 2016-06-23T19:36:34Z 629 582
Slia 2016-06-22T17:52:59Z 311 285
Masuria 2016-06-22T17:30:28Z 323 290
Campeonato Português de Futebol 2016-06-22T17:29:40Z 322 244
Carus (fluvius) 2016-06-22T17:29:17Z 322 290
Ismaël Lô 2016-06-22T17:29:01Z 318 234
Hästholmen 2016-06-22T16:27:01Z 301 272
Litterae recentiores linguam Latinam implicantes 2016-06-21T21:03:20Z 322 257
Linea nivalis 2016-06-21T21:03:09Z 322 271
Subsilvania 2016-06-21T21:02:51Z 322 298
Pistrina 2016-06-21T21:02:19Z 309 279
Universitas Academica Edinburgensis 2016-06-21T21:02:04Z 321 248
Titiana Ferrario 2016-06-21T21:01:55Z 321 265
Portus Alacer (Lusitania) 2016-06-21T21:01:45Z 320 286
Corinthia 2016-06-21T21:01:33Z 320 263
Naviculifer 2016-06-21T21:01:21Z 293 236
Troarnum (abbatia) 2016-06-21T21:01:08Z 320 172
Quindecim 2016-06-21T09:05:35Z 303 212
Falcopia 2016-06-20T18:10:55Z 315 286
Arta 2016-06-20T18:10:48Z 319 247
Vallis Faller 2016-06-20T18:10:27Z 317 284
Oleum * 2016-06-20T18:10:17Z 298 275
Redwall 2016-06-20T18:10:06Z 319 220
Lafayette Occidentalis 2016-06-20T18:09:46Z 319 289
Tulpiacum 2016-06-20T18:08:55Z 316 258
Martinus Humer 2016-06-20T18:08:47Z 317 285
Alvarus Véliz 2016-06-20T18:08:40Z 317 285
Danaus 2016-06-20T18:08:32Z 312 259
Albus cibus 2016-06-20T18:08:09Z 318 294
Saticula (urbs antiqua) 2016-06-20T18:07:59Z 316 235
Bloc Québécois 2016-06-20T18:07:51Z 316 260
Supercalefactio 2016-06-20T18:07:40Z 317 286
Our Airline 2016-06-20T18:07:33Z 317 258
Caravela 2016-06-20T18:06:43Z 314 231
Suttomium 2016-06-20T17:35:26Z 317 280
Venetae dialecti 2016-06-19T19:35:27Z 398 365
Ecclesia Magna (Nijkerk) 2016-06-19T11:52:17Z 480 390
Fridericus VIII (rex Daniae) 2016-06-19T08:06:01Z 741 635
Thiocyanas 2016-06-18T20:17:32Z 413 380
Mensa dulcitudinum 2016-06-18T20:17:20Z 460 414
Cladeus 2016-06-18T19:48:05Z 297 233
Chemia polymerica * 2016-06-18T19:47:54Z 283 263
Amsara 2016-06-18T19:47:31Z 275 242
Thorsten Roos 2016-06-18T06:09:59Z 375 291
Coprolithum 2016-06-16T22:57:59Z 283 253
Aeroportus Phu Cat 2016-06-16T22:56:12Z 276 237
Lingua Medica 2016-06-16T22:55:41Z 283 218
Aeroportus Pleiku 2016-06-16T22:55:31Z 283 244
Pediludium aulare 2016-06-16T22:54:54Z 299 269
Florina 2016-06-16T22:54:23Z 291 238
Mutschellen 2016-06-16T22:53:03Z 282 228
Antonymum 2016-06-16T22:52:13Z 279 249
Syleus 2016-06-16T22:50:45Z 264 231
Tesco 2016-06-16T22:48:55Z 298 218
The Office 2016-06-16T22:48:41Z 291 258
Bushido (musicus) 2016-06-16T17:19:37Z 634 551
Aviatorilor 2016-06-16T10:14:47Z 533 498
Citius, altius, fortius 2016-06-15T04:23:04Z 289 223
Bruno Erickson 2016-06-15T04:22:08Z 316 213
Aeroportus Cần Thơ 2016-06-11T15:06:43Z 299 238
Universitas Cordubae 2016-06-11T11:53:28Z 941 872
Aurivillius 2016-06-09T19:25:45Z 266 240
Epulum * 2016-06-09T18:53:14Z 354 331
Brandy Rayana Norwood 2016-06-05T23:32:10Z 1082 925
Anglocatholicismus 2016-06-05T09:38:16Z 907 771
Tectum displuviatum 2016-06-04T17:19:33Z 309 281
Scuta occipitalia 2016-06-02T18:28:28Z 315 281
Firmitas Super Grosnam 2016-06-02T18:26:43Z 325 255
Slurpee 2016-06-02T18:22:51Z 314 290
Mindanao Septemtrionalis 2016-06-02T10:23:18Z 261 223
Paeninsula Zamboanga 2016-06-02T10:23:15Z 611 533
Visayas Orientalis 2016-06-02T10:22:56Z 415 377
Cordillera Administrative Region 2016-06-02T10:22:24Z 258 220
MIMAROPA 2016-06-02T10:22:12Z 429 391
Germania Magna 2016-06-01T22:10:00Z 314 249
De Aar 2016-06-01T22:09:06Z 314 248
Carthago (Illinoesia) 2016-06-01T22:08:58Z 314 281
Bella Collegiorum 2016-06-01T22:08:49Z 314 280
Collis Hamundi 2016-06-01T22:08:36Z 312 283
Amber Sainsbury 2016-06-01T19:22:24Z 1008 867
Dalecarlius 2016-06-01T19:13:18Z 308 277
Ciborium (vas sacrum) 2016-06-01T15:32:37Z 313 264
Tormenta rochetarum 2016-06-01T05:26:34Z 311 291
OXO 2016-06-01T05:26:00Z 312 278
Leopoldus I (dux Lotharingiae) 2016-06-01T00:42:29Z 386 302
Slobozia 2016-05-31T16:57:22Z 361 331
Varus 2016-05-31T15:40:01Z 312 280
Punctum Lambda 2016-05-31T15:39:53Z 311 241
Paulus Rumiz 2016-05-31T15:39:45Z 311 245
Lex Walrasis 2016-05-31T15:37:23Z 310 285
Ressogna 2016-05-31T15:37:16Z 309 286
Franschhoek 2016-05-30T18:21:57Z 310 244
Gillet 2016-05-30T18:20:39Z 310 226
Conus Australis 2016-05-30T18:19:50Z 309 264
Usucapio 2016-05-28T21:47:05Z 298 268
Vernon Ellis 2016-05-28T21:46:15Z 308 261
Baluo 2016-05-28T21:45:51Z 306 240
Yumbel 2016-05-28T21:45:43Z 308 279
Ensenada 2016-05-28T21:45:31Z 308 280
Mindoro Orientalis 2016-05-28T21:45:04Z 308 235
Scutum praefrontale 2016-05-28T21:44:35Z 308 274
Sancta Rosa (Argentina) 2016-05-28T20:54:57Z 305 273
Verona (Bohemia) 2016-05-28T20:54:18Z 304 275
Perilaus (Icarii filius) 2016-05-28T20:54:08Z 289 256
Philippopolis (Syria) 2016-05-28T20:53:55Z 302 274
Arma Christi 2016-05-28T20:53:14Z 305 274
Salina in Aeni Valle 2016-05-28T20:52:30Z 307 277
Imperatores Franciae 2016-05-28T20:51:45Z 306 268
Societas Latina Vallisoletana 2016-05-28T20:50:31Z 306 247
Elixir vitae 2016-05-28T20:49:56Z 307 260
Aeroportus Dong Hoi 2016-05-28T20:49:31Z 300 238
Dolus malus 2016-05-28T20:49:24Z 305 275
Isca (flumen Devoniae) 2016-05-28T20:49:14Z 305 252
Alfredus Landa 2016-05-28T20:48:54Z 307 274
Provincia Giessa 2016-05-28T14:19:17Z 1360 1303
Orphanotrophium * 2016-05-27T20:05:27Z 292 217
Insulae Ioannis Ferdinandi 2016-05-27T20:05:05Z 290 246
Condacum 2016-05-27T20:03:53Z 290 259
Färlöv 2016-05-27T20:03:34Z 287 258
Museum informaticum 2016-05-27T20:03:10Z 288 253
Lingua Parthica 2016-05-27T20:02:56Z 288 223
Lingua Bactriana 2016-05-27T20:02:49Z 288 223
Doclea 2016-05-27T20:02:34Z 288 241
Barbelli 2016-05-27T20:02:18Z 288 218
Zinder 2016-05-27T20:01:31Z 287 242
Elassonites 2016-05-27T20:00:40Z 262 206
División Minúscula 2016-05-27T20:00:33Z 284 218
Terra nullius 2016-05-27T20:00:04Z 285 255
Timeo Danaos et dona ferentes 2016-05-27T19:59:57Z 285 250
Scientia vincere tenebras 2016-05-27T19:59:49Z 285 251
Principitonia (Virginia Occidentalis) 2016-05-27T19:59:42Z 295 251
Idomeneus 2016-05-27T09:32:34Z 949 850
Passus 2016-05-25T22:06:20Z 298 266
Caduceus 2016-05-25T22:06:02Z 277 223
Dacia Ripensis 2016-05-25T22:05:24Z 304 270
Tertium Bellum Macedonicum 2016-05-25T22:05:10Z 304 272
Anisus 2016-05-25T11:56:13Z 299 267
Vermis lacus 2016-05-25T11:51:23Z 388 357
Ammonia * 2016-05-25T03:52:16Z 280 257
Canistripila 2016-05-25T03:51:57Z 281 251
Concilium Toletanum II 2016-05-25T03:51:50Z 280 247
Simona Senoner 2016-05-25T03:51:40Z 279 224
Tekle Giyorgis II 2016-05-25T03:51:28Z 279 185
Arcus venosus iugularis 2016-05-25T03:50:55Z 282 252
Tao 2016-05-25T03:45:18Z 302 243
Petrus Hantaï 2016-05-25T03:45:08Z 302 300
Terra Mariae Meridiana 2016-05-25T03:42:26Z 302 274
Sisimiut 2016-05-25T03:42:10Z 301 267
Metis (mythologia Graeca) 2016-05-25T03:41:59Z 296 273
Abbatis cella (pagus) 2016-05-25T03:41:13Z 302 278
Scientia ad historiam scribendam pertinens 2016-05-25T03:38:20Z 301 277
South Bend (Indiana) 2016-05-24T13:54:10Z 299 269
Compensatio 2016-05-23T20:06:48Z 278 229
Musina 2016-05-23T20:06:41Z 279 240
Grandis Insula (Nebrasca) 2016-05-23T20:06:16Z 288 230
Aeroportus Ca Mau 2016-05-23T20:05:51Z 276 237
Stadlandet 2016-05-23T20:05:20Z 276 239
Miranda (civitas) 2016-05-23T20:05:12Z 275 239
Adytum 2016-05-23T13:19:29Z 330 267
IMac 2016-05-22T03:01:24Z 276 204
River Plate 2016-05-22T03:01:03Z 274 238
Talus (os) 2016-05-22T03:00:22Z 495 475
Commarca 2016-05-21T20:59:21Z 713 671
Mutatio consonantium 2016-05-21T16:07:29Z 1145 1087
Matilda (uxor Stephani, regis Angliae) 2016-05-21T04:27:58Z 295 203
Vicecomes (titulus dignitatis) 2016-05-21T04:26:18Z 294 261
Municipium (Germania) 2016-05-21T04:25:59Z 294 245
Lumen 2016-05-21T04:25:27Z 293 243
Quistirna 2016-05-20T07:21:32Z 275 242
Servola 2016-05-20T07:21:06Z 274 250
Honor (praedium) 2016-05-20T07:19:59Z 273 231
Nova Caledonia 2016-05-20T07:18:15Z 306 232
Solidus (nummus) 2016-05-19T18:54:53Z 295 237
Domicilium 2016-05-19T18:54:40Z 295 267
Archivarius 2016-05-19T18:53:29Z 295 251
Mariaestadium 2016-05-19T18:52:01Z 296 267
Iuturna 2016-05-19T18:51:48Z 296 263
Bruxellae (Illinoesia) 2016-05-19T18:51:06Z 296 263
Urbs Oceana (Terra Mariae) 2016-05-19T18:50:57Z 296 261
Wullersdorf 2016-05-19T18:50:45Z 296 232
Epocha (astronomia) * 2016-05-16T20:14:01Z 273 247
Accidentalia negotii 2016-05-16T20:13:37Z 273 243
Manuel Maria Lombardini 2016-05-15T19:53:38Z 673 562
Commutatio Clistheniana 2016-05-12T20:39:24Z 795 736
Vauconda 2016-05-12T18:16:46Z 293 260
Onyx 2016-05-12T18:16:18Z 293 222
Aeroportus Buon Ma Thuot 2016-05-12T03:55:06Z 259 220
Mensura Mesopotamena 2016-05-07T17:55:22Z 257 208
Mustum 2016-05-07T17:53:39Z 257 208
Essequibo 2016-05-07T01:45:06Z 258 226
EMac 2016-05-07T01:42:33Z 261 234
Iohannes Sentamu 2016-05-06T11:09:21Z 602 408
ACF Fiorentina 2016-05-04T13:04:50Z 967 863
MediaVici 2016-05-04T04:56:58Z 420 333
Pera Palatium 2016-05-03T12:07:00Z 987 900
Deversorium Ritz 2016-05-03T12:03:19Z 688 635
Deversorium Negresco 2016-05-03T12:00:33Z 601 535
Deversorium Astoria 2016-05-03T11:55:41Z 959 901
Ignis fatuus 2016-05-02T11:37:44Z 642 599
Moab (civitas) 2016-04-30T15:58:01Z 581 515
Philippus Plein 2016-04-28T17:24:12Z 562 469
Gabriel Ramanantsoa 2016-04-28T02:32:59Z 615 526
Helminthopsis 2016-04-23T11:37:31Z 788 723
Miriam Makeba 2016-04-19T11:13:03Z 997 738
Insula Iuventutis 2016-04-19T10:37:37Z 1028 969
Regnum Montis Nigri 2016-04-17T13:38:07Z 406 345
Tympanum (anatomia) 2016-04-16T01:58:25Z 553 529
Nicolaus Jommelli 2016-04-10T20:26:03Z 750 596
Nicocles 2016-04-09T12:43:23Z 700 555
Ladislaus Mazurkiewicz 2016-04-06T12:12:47Z 730 693
Leonardus Loredan 2016-04-05T20:06:27Z 1196 1086
Zamboanga Sibugay 2016-04-02T12:41:57Z 668 604
Visayana 2016-04-02T12:40:24Z 458 420
Comitatus Vexfordiensis 2016-04-02T11:59:11Z 600 543
Ioannes Maria Solare 2016-04-02T11:53:05Z 618 470
Fukuzawa Yukichi 2016-04-02T11:38:45Z 563 478
Thomas North 2016-04-01T00:14:47Z 737 475
Vicipaedia:Porta eruditionis/Scriptorium/Pons Aureae Portae 2016-03-28T11:36:26Z 781 759
Dominium publicum 2016-03-27T12:31:27Z 479 449
Nazarenus Strampelli 2016-03-25T18:20:01Z 790 652
Archipelagus Bijagós 2016-03-25T18:17:37Z 904 792
Familia regalis Suecica 2016-03-24T12:01:01Z 706 653
Eleutherna 2016-03-20T09:47:30Z 758 660
Carolus Seymour Whitman 2016-03-19T11:27:01Z 597 486
Carolus V (dux Lotharingiae) 2016-03-16T13:11:26Z 600 516
Gigeria 2016-03-14T04:37:50Z 552 531
Gula 2016-03-12T12:42:09Z 527 460
Lotharingus Boettner 2016-03-10T11:53:26Z 1342 1224
Globus Pediludii Sartaginensis 2016-03-10T11:48:50Z 822 786
Ioannes Rivera 2016-03-07T18:19:46Z 758 631
Georgius Merula 2016-03-05T14:01:58Z 761 653
Ludovicus V (rex Franciae) 2016-03-02T14:07:59Z 536 427
Coniunctio communium 2016-03-02T13:28:09Z 626 594
Mobile (ars) 2016-02-19T13:03:23Z 743 670
Series televisiva 2016-02-14T03:13:51Z 892 850
Nephthys 2016-02-09T19:52:19Z 882 854
Maria di Rohan 2016-02-06T05:31:29Z 531 477
Emmanuel Rhoides 2016-02-03T13:36:44Z 566 402
Voile 2016-01-29T12:50:04Z 1151 1093
Universitas Civitatis Liberae 2016-01-24T20:02:32Z 1079 975
Civitas libera (Africa Australis) 2015-12-23T15:04:48Z 764 693
Paranova 2015-12-21T17:24:44Z 1006 967